Terminal Aerodrome Forecast
Issued by NWS

Home | Current Version | Previous Version | Text Only | Print | Product List | Glossary On
Versions: 1 2 3 4 5 6 7 8 9 10 11 12 13 14
453
FTUS46 KSTO 251136
TAFSMF
TAF
KSMF 251136Z 2512/2612 18005KT P6SM BKN080
     FM251800 33005KT P6SM BKN100
      TEMPO 2518/2522 BKN050
     FM252200 33005KT P6SM SCT250=

USA.gov is the U.S. government's official web portal to all federal, state and local government web resources and services.